Time;durP1;ratioP1;P1;durP2;ratioP2;P2;SDS_P1;SDS_P2;PMS_P1;PMS_P2;Temp;Humidity;BMP_temperature;BMP_pressure;BME280_temperature;BME280_humidity;BME280_pressure;Samples;Min_cycle;Max_cycle;Signal;HPM_P1;HPM_P2
2023/06/24 00:01:00;;;;;;;8.57;5.40;;;15.30;99.90;;;;;;5034486;28;20608;-82
2023/06/24 00:03:26;;;;;;;6.17;5.50;;;15.30;99.90;;;;;;5035062;28;20649;-82
2023/06/24 00:05:51;;;;;;;5.40;4.90;;;15.20;99.90;;;;;;5035695;28;20214;-82
2023/06/24 00:08:19;;;;;;;6.53;5.37;;;15.20;99.90;;;;;;5033247;28;20170;-82
2023/06/24 00:10:46;;;;;;;5.80;5.30;;;15.10;99.90;;;;;;5034464;28;20220;-81
2023/06/24 00:13:12;;;;;;;5.97;5.33;;;15.10;99.90;;;;;;5033615;28;20185;-81
2023/06/24 00:15:42;;;;;;;6.47;5.20;;;15.00;99.90;;;;;;5034969;28;20195;-81
2023/06/24 00:18:10;;;;;;;6.50;4.90;;;14.90;99.90;;;;;;5033413;28;20261;-81
2023/06/24 00:20:35;;;;;;;7.40;5.40;;;15.00;99.90;;;;;;5032854;28;20208;-81
2023/06/24 00:23:01;;;;;;;6.33;5.20;;;14.90;99.90;;;;;;5033699;28;20166;-81
2023/06/24 00:25:27;;;;;;;5.53;5.03;;;15.00;99.90;;;;;;5034271;28;20630;-81
2023/06/24 00:27:52;;;;;;;5.77;5.00;;;15.10;99.90;;;;;;5034535;28;20173;-81
2023/06/24 00:30:18;;;;;;;4.80;4.40;;;15.10;99.90;;;;;;5032909;28;20171;-81
2023/06/24 00:32:44;;;;;;;7.20;5.30;;;14.90;99.90;;;;;;5033001;28;20174;-81
2023/06/24 00:35:12;;;;;;;5.67;5.10;;;14.80;99.90;;;;;;5033628;28;20205;-81
2023/06/24 00:37:38;;;;;;;5.40;4.90;;;14.80;99.90;;;;;;5034645;28;20181;-81
2023/06/24 00:40:04;;;;;;;5.90;5.30;;;14.80;99.90;;;;;;5034337;28;20178;-81
2023/06/24 00:42:30;;;;;;;5.97;4.70;;;14.80;99.90;;;;;;5032967;28;20184;-81
2023/06/24 00:44:56;;;;;;;5.23;4.60;;;14.80;99.90;;;;;;5033068;28;20191;-81
2023/06/24 00:47:23;;;;;;;6.10;4.60;;;14.70;99.90;;;;;;5037215;28;20181;-81
2023/06/24 00:49:49;;;;;;;5.73;4.77;;;14.70;99.90;;;;;;5038425;28;20171;-81
2023/06/24 00:52:15;;;;;;;4.80;4.40;;;14.60;99.90;;;;;;5036948;28;20772;-81
2023/06/24 00:54:44;;;;;;;6.57;5.00;;;14.60;99.90;;;;;;5038717;28;20201;-81
2023/06/24 00:57:10;;;;;;;6.17;4.90;;;14.60;99.90;;;;;;5037296;28;20205;-82
2023/06/24 00:59:37;;;;;;;5.00;4.43;;;14.60;99.90;;;;;;5038162;28;20178;-78
2023/06/24 01:02:04;;;;;;;5.93;5.30;;;14.60;99.90;;;;;;5038269;28;20200;-81
2023/06/24 01:04:32;;;;;;;5.90;5.30;;;14.40;99.90;;;;;;5037847;28;20209;-81
2023/06/24 01:06:58;;;;;;;9.03;4.73;;;14.40;99.90;;;;;;5036398;28;20182;-81
2023/06/24 01:09:24;;;;;;;5.30;3.83;;;14.30;99.90;;;;;;5036503;28;20788;-82
2023/06/24 01:11:50;;;;;;;4.80;4.30;;;14.30;99.90;;;;;;5037620;28;20200;-82
2023/06/24 01:14:19;;;;;;;7.37;4.50;;;14.10;99.90;;;;;;5038344;28;20566;-81
2023/06/24 01:17:19;;;;;;;7.93;4.50;;;14.10;99.90;;;;;;5036741;28;20178;-81
2023/06/24 01:19:51;;;;;;;7.13;4.93;;;14.20;99.90;;;;;;5036279;28;20170;-81
2023/06/24 01:22:34;;;;;;;8.43;4.40;;;14.20;99.90;;;;;;5036630;28;20202;-81
2023/06/24 01:25:18;;;;;;;5.90;4.83;;;14.30;99.90;;;;;;5036933;28;20201;-81
2023/06/24 01:28:00;;;;;;;5.23;4.70;;;14.20;99.90;;;;;;5037104;28;20212;-81
2023/06/24 01:30:58;;;;;;;5.77;4.97;;;14.40;99.90;;;;;;5036303;28;20201;-81
2023/06/24 01:33:32;;;;;;;5.80;4.70;;;14.30;99.90;;;;;;5023471;28;20178;-81
2023/06/24 01:35:59;;;;;;;6.83;4.13;;;14.30;99.90;;;;;;5037307;28;20190;-81
2023/06/24 01:38:36;;;;;;;4.57;4.10;;;14.20;99.90;;;;;;5037683;28;20177;-82
2023/06/24 01:41:04;;;;;;;6.87;4.90;;;14.10;99.90;;;;;;5036436;28;20216;-81
2023/06/24 01:43:32;;;;;;;6.83;4.73;;;14.00;99.90;;;;;;5037652;28;20265;-81
2023/06/24 01:45:58;;;;;;;5.87;5.00;;;14.00;99.90;;;;;;5037578;28;20190;-81
2023/06/24 01:48:34;;;;;;;5.23;4.67;;;13.90;99.90;;;;;;5037650;28;20171;-81
2023/06/24 01:51:13;;;;;;;8.17;4.90;;;13.80;99.90;;;;;;5036186;28;20213;-81
2023/06/24 01:53:44;;;;;;;5.63;4.80;;;13.80;99.90;;;;;;5036056;28;20167;-81
2023/06/24 01:56:13;;;;;;;8.13;4.90;;;13.90;99.90;;;;;;5037484;28;20618;-81
2023/06/24 01:58:41;;;;;;;5.87;4.50;;;14.10;99.90;;;;;;5036306;28;20174;-81
2023/06/24 02:01:07;;;;;;;4.87;4.37;;;14.00;99.90;;;;;;5036816;28;20754;-81
2023/06/24 02:03:34;;;;;;;6.43;4.80;;;13.90;99.90;;;;;;5037407;28;20170;-81
2023/06/24 02:06:01;;;;;;;4.57;4.17;;;13.90;99.90;;;;;;5035556;28;20259;-81
2023/06/24 02:08:31;;;;;;;4.50;4.10;;;13.80;99.90;;;;;;5037087;28;20179;-82
2023/06/24 02:10:59;;;;;;;3.93;3.57;;;13.90;99.90;;;;;;5035524;28;20178;-82
2023/06/24 02:13:25;;;;;;;6.13;4.67;;;13.80;99.90;;;;;;5035988;28;20174;-81
2023/06/24 02:15:51;;;;;;;5.93;4.23;;;13.70;99.90;;;;;;5035990;28;20660;-81
2023/06/24 02:18:19;;;;;;;4.67;4.10;;;13.70;99.90;;;;;;5036904;28;20237;-81
2023/06/24 02:20:47;;;;;;;8.63;4.10;;;13.50;99.90;;;;;;5035650;28;20194;-81
2023/06/24 02:23:14;;;;;;;5.33;4.20;;;13.50;99.90;;;;;;5037242;28;20177;-81
2023/06/24 02:25:40;;;;;;;7.53;4.53;;;13.50;99.90;;;;;;5036606;28;20575;-81
2023/06/24 02:28:08;;;;;;;7.00;4.50;;;13.60;99.90;;;;;;5036615;28;20170;-81
2023/06/24 02:30:35;;;;;;;5.97;4.40;;;13.70;99.90;;;;;;5036517;28;20224;-81
2023/06/24 02:33:01;;;;;;;5.63;4.50;;;13.80;99.90;;;;;;5036744;28;20220;-81
2023/06/24 02:35:27;;;;;;;5.40;4.33;;;13.70;99.90;;;;;;5035919;28;20202;-81
2023/06/24 02:37:53;;;;;;;6.27;4.63;;;13.80;99.90;;;;;;5036489;28;20289;-81
2023/06/24 02:40:18;;;;;;;7.77;4.10;;;13.90;99.90;;;;;;5036766;28;20194;-81
2023/06/24 02:42:44;;;;;;;4.83;4.17;;;13.90;99.90;;;;;;5036620;28;20170;-81
2023/06/24 02:45:10;;;;;;;5.37;4.20;;;13.80;99.90;;;;;;5036035;28;20194;-81
2023/06/24 02:47:36;;;;;;;6.83;4.33;;;13.70;99.90;;;;;;5036554;28;20204;-81
2023/06/24 02:50:04;;;;;;;4.77;4.17;;;13.80;99.90;;;;;;5035241;28;20217;-81
2023/06/24 02:52:30;;;;;;;4.97;4.47;;;13.70;99.90;;;;;;5034873;28;20649;-81
2023/06/24 02:54:59;;;;;;;3.87;3.57;;;13.70;99.90;;;;;;5035889;28;20197;-81
2023/06/24 02:57:26;;;;;;;4.83;3.90;;;13.50;98.50;;;;;;5034983;28;20171;-81
2023/06/24 02:59:52;;;;;;;4.87;3.50;;;13.20;99.90;;;;;;5036883;28;20231;-81
2023/06/24 03:02:18;;;;;;;4.30;3.70;;;13.10;99.90;;;;;;5036390;28;20607;-81
2023/06/24 03:04:44;;;;;;;4.87;4.10;;;13.00;99.90;;;;;;5034484;28;20205;-79
2023/06/24 03:07:11;;;;;;;5.27;3.73;;;13.00;99.90;;;;;;5036084;28;20174;-81
2023/06/24 03:09:36;;;;;;;4.40;3.50;;;13.10;99.90;;;;;;5035505;28;20736;-78
2023/06/24 03:12:02;;;;;;;4.73;3.80;;;13.20;99.90;;;;;;5034545;28;20209;-81
2023/06/24 03:14:28;;;;;;;4.13;3.73;;;13.30;99.90;;;;;;5034244;28;20210;-81
2023/06/24 03:16:53;;;;;;;4.93;3.90;;;13.30;99.90;;;;;;5036178;28;20178;-82
2023/06/24 03:19:19;;;;;;;4.60;4.00;;;13.30;99.90;;;;;;5034291;28;20178;-81
2023/06/24 03:21:45;;;;;;;6.83;4.87;;;13.20;99.90;;;;;;5035648;28;20206;-83
2023/06/24 03:24:10;;;;;;;6.53;5.10;;;13.20;99.90;;;;;;5035627;28;20190;-81
2023/06/24 03:26:38;;;;;;;7.87;4.67;;;13.10;99.90;;;;;;5035643;28;20220;-81
2023/06/24 03:29:04;;;;;;;5.43;4.77;;;13.10;99.90;;;;;;5034111;28;20641;-81
2023/06/24 03:31:30;;;;;;;5.87;4.50;;;13.00;99.90;;;;;;5035507;28;20178;-82
2023/06/24 03:33:55;;;;;;;4.50;4.10;;;12.80;99.90;;;;;;5035224;28;20182;-81
2023/06/24 03:36:21;;;;;;;5.33;4.83;;;12.90;99.90;;;;;;5034151;28;20186;-81
2023/06/24 03:38:47;;;;;;;5.00;4.60;;;12.90;99.90;;;;;;5035909;28;20228;-81
2023/06/24 03:41:12;;;;;;;4.03;3.63;;;13.00;99.90;;;;;;5035244;28;20285;-81
2023/06/24 03:43:39;;;;;;;3.77;3.00;;;13.00;99.90;;;;;;5034580;28;20515;-81
2023/06/24 03:46:04;;;;;;;4.33;3.80;;;13.00;99.90;;;;;;5034153;28;20240;-81
2023/06/24 03:48:30;;;;;;;3.60;3.30;;;13.00;99.90;;;;;;5035253;28;20210;-81
2023/06/24 03:50:55;;;;;;;3.80;3.50;;;13.00;99.90;;;;;;5034730;28;20181;-81
2023/06/24 03:53:21;;;;;;;4.17;3.73;;;13.00;99.90;;;;;;5035018;28;20186;-81
2023/06/24 03:55:46;;;;;;;3.50;2.90;;;13.00;99.90;;;;;;5035404;28;20197;-81
2023/06/24 03:58:13;;;;;;;4.60;3.30;;;13.00;99.90;;;;;;5035287;28;20174;-81
2023/06/24 04:00:40;;;;;;;4.10;3.70;;;12.90;99.90;;;;;;5034665;28;20702;-81
2023/06/24 04:03:07;;;;;;;6.40;3.30;;;12.90;99.90;;;;;;5035240;28;20194;-81
2023/06/24 04:05:35;;;;;;;5.73;3.90;;;12.80;99.90;;;;;;5034627;28;20268;-81
2023/06/24 04:08:03;;;;;;;3.63;3.33;;;12.80;99.90;;;;;;5033710;28;20170;-81
2023/06/24 04:10:29;;;;;;;4.27;3.77;;;12.80;99.90;;;;;;5033286;28;20216;-82
2023/06/24 04:12:54;;;;;;;4.87;4.00;;;12.90;99.90;;;;;;5035222;28;20232;-81
2023/06/24 04:15:20;;;;;;;3.87;3.47;;;12.80;99.90;;;;;;5034761;28;20202;-81
2023/06/24 04:17:45;;;;;;;4.70;3.53;;;12.80;99.90;;;;;;5034806;28;20178;-82
2023/06/24 04:20:11;;;;;;;4.00;3.60;;;12.80;99.90;;;;;;5032430;28;20611;-81
2023/06/24 04:22:38;;;;;;;4.10;3.70;;;12.80;99.90;;;;;;5033754;28;20171;-81
2023/06/24 04:25:08;;;;;;;4.60;3.60;;;12.90;99.90;;;;;;5033326;28;20273;-81
2023/06/24 04:27:34;;;;;;;6.13;3.90;;;13.10;99.90;;;;;;5033185;28;20270;-81
2023/06/24 04:30:00;;;;;;;4.80;4.20;;;13.20;99.90;;;;;;5034273;28;20170;-81
2023/06/24 04:32:26;;;;;;;4.60;4.20;;;13.20;99.90;;;;;;5033438;28;20174;-81
2023/06/24 04:34:51;;;;;;;5.03;4.50;;;13.30;99.90;;;;;;5032571;28;20704;-81
2023/06/24 04:37:17;;;;;;;4.97;4.47;;;13.30;99.90;;;;;;5034916;28;20185;-80
2023/06/24 04:39:46;;;;;;;5.17;4.70;;;13.20;99.90;;;;;;5034577;28;20545;-81
2023/06/24 04:42:12;;;;;;;5.50;4.63;;;13.10;99.90;;;;;;5034738;28;20269;-82
2023/06/24 04:44:37;;;;;;;4.83;4.30;;;13.20;99.90;;;;;;5034573;28;20205;-81
2023/06/24 04:47:03;;;;;;;5.50;4.23;;;13.20;99.90;;;;;;5034522;28;20182;-78
2023/06/24 04:49:29;;;;;;;5.20;4.70;;;13.30;99.90;;;;;;5032918;28;20202;-79
2023/06/24 04:51:54;;;;;;;5.17;4.20;;;13.20;99.90;;;;;;5031308;28;20209;-78
2023/06/24 04:54:20;;;;;;;5.50;4.60;;;13.30;99.90;;;;;;5032512;28;20256;-78
2023/06/24 04:56:48;;;;;;;5.73;4.77;;;13.30;99.90;;;;;;5031421;28;20174;-78
2023/06/24 04:59:13;;;;;;;4.93;4.40;;;13.30;99.90;;;;;;5031638;28;20232;-85
2023/06/24 05:01:39;;;;;;;8.47;4.83;;;13.30;99.90;;;;;;5031344;28;20206;-79
2023/06/24 05:04:05;;;;;;;5.83;5.33;;;13.30;99.90;;;;;;5031379;28;20179;-78
2023/06/24 05:06:30;;;;;;;5.80;5.20;;;13.40;99.90;;;;;;5031978;28;20193;-77
2023/06/24 05:08:56;;;;;;;6.17;4.83;;;13.50;99.90;;;;;;5032030;28;20634;-78
2023/06/24 05:11:22;;;;;;;5.63;5.03;;;13.60;99.90;;;;;;5031458;28;20182;-79
2023/06/24 05:13:47;;;;;;;6.80;4.80;;;13.70;99.90;;;;;;5033934;28;20213;-78
2023/06/24 05:16:13;;;;;;;5.43;4.53;;;13.70;99.90;;;;;;5033982;28;20178;-80
2023/06/24 05:18:38;;;;;;;8.37;5.53;;;13.70;99.90;;;;;;5032797;28;20181;-79
2023/06/24 05:21:04;;;;;;;8.67;4.47;;;13.80;99.90;;;;;;5033251;28;20562;-81
2023/06/24 05:23:29;;;;;;;5.30;3.80;;;14.00;99.90;;;;;;5034458;28;20166;-81
2023/06/24 05:25:55;;;;;;;4.10;3.70;;;15.60;99.90;;;;;;5035745;28;20186;-81
2023/06/24 05:28:21;;;;;;;5.97;3.40;;;16.90;99.90;;;;;;5034890;28;20174;-82
2023/06/24 05:30:46;;;;;;;6.53;3.70;;;18.20;99.90;;;;;;5033578;28;20266;-80
2023/06/24 05:33:12;;;;;;;5.53;3.40;;;18.90;97.70;;;;;;5034898;28;20170;-83
2023/06/24 05:35:40;;;;;;;4.93;3.17;;;18.60;11.60;;;;;;5036038;28;20627;-83
2023/06/24 05:38:06;;;;;;;3.70;3.03;;;18.60;99.90;;;;;;5036264;28;20183;-84
2023/06/24 05:40:31;;;;;;;4.50;3.93;;;18.80;99.90;;;;;;5034745;28;20264;-82
2023/06/24 05:42:57;;;;;;;5.00;4.23;;;18.50;99.90;;;;;;5036687;28;20171;-81
2023/06/24 05:45:23;;;;;;;5.53;3.53;;;18.40;1.00;;;;;;5036381;28;20259;-81
2023/06/24 05:47:48;;;;;;;5.67;4.80;;;18.20;1.00;;;;;;5040269;28;20242;-81
2023/06/24 05:50:14;;;;;;;5.03;4.27;;;17.80;99.90;;;;;;5039588;28;20170;-81
2023/06/24 05:52:39;;;;;;;4.97;4.43;;;17.60;1.00;;;;;;5039389;28;20190;-82
2023/06/24 05:55:05;;;;;;;3.93;3.60;;;17.90;1.00;;;;;;5037749;28;20198;-81
2023/06/24 05:57:31;;;;;;;4.90;3.67;;;18.50;99.90;;;;;;5038278;28;20186;-81
2023/06/24 05:59:56;;;;;;;3.93;3.63;;;18.70;1.00;;;;;;5038007;28;20178;-82
2023/06/24 06:02:22;;;;;;;4.10;3.40;;;18.80;99.90;;;;;;5036439;28;20252;-81
2023/06/24 06:04:47;;;;;;;4.40;4.00;;;19.20;1.00;;;;;;5035812;28;20210;-83
2023/06/24 06:07:13;;;;;;;6.23;3.87;;;19.40;99.90;;;;;;5036076;28;20660;-82
2023/06/24 06:09:39;;;;;;;4.70;3.60;;;19.30;99.90;;;;;;5034891;28;20229;-82
2023/06/24 06:12:05;;;;;;;5.80;4.30;;;19.60;99.90;;;;;;5036523;28;20182;-84
2023/06/24 06:14:30;;;;;;;5.93;5.33;;;19.80;1.00;;;;;;5034335;28;20271;-84
2023/06/24 06:16:56;;;;;;;4.97;4.32;;;19.40;1.00;;;;;;5034533;28;20564;-83
2023/06/24 06:19:21;;;;;;;4.17;3.77;;;18.90;99.90;;;;;;5034422;28;20204;-83
2023/06/24 06:21:49;;;;;;;5.53;3.67;;;19.20;1.00;;;;;;5035576;28;20360;-85
2023/06/24 06:24:14;;;;;;;4.53;4.10;;;19.50;99.90;;;;;;5034988;28;20565;-84
2023/06/24 06:26:44;;;;;;;4.68;3.80;;;19.80;1.00;;;;;;5034062;28;20170;-83
2023/06/24 06:29:10;;;;;;;5.60;4.03;;;19.70;1.00;;;;;;5034967;28;20305;-84
2023/06/24 06:31:35;;;;;;;5.00;4.50;;;19.80;1.00;;;;;;5033884;28;20175;-83
2023/06/24 06:34:01;;;;;;;5.43;4.90;;;19.80;1.00;;;;;;5033872;28;20182;-83
2023/06/24 06:36:27;;;;;;;5.45;4.60;;;19.60;99.90;;;;;;5035003;28;20671;-83
2023/06/24 06:38:53;;;;;;;6.55;5.18;;;19.30;1.00;;;;;;5033774;28;20179;-84
2023/06/24 06:41:24;;;;;;;5.00;4.32;;;19.00;99.90;;;;;;5033504;28;20583;-83
2023/06/24 06:43:50;;;;;;;5.53;3.60;;;19.10;99.90;;;;;;5034228;28;20151;-83
2023/06/24 06:46:15;;;;;;;4.22;3.85;;;19.50;99.90;;;;;;5034918;28;20258;-83
2023/06/24 06:48:41;;;;;;;5.22;4.72;;;19.80;1.00;;;;;;5034759;28;20605;-83
2023/06/24 06:51:06;;;;;;;4.83;4.40;;;19.80;1.00;;;;;;5034344;28;20178;-83
2023/06/24 06:53:32;;;;;;;5.10;4.50;;;20.00;1.00;;;;;;5034572;28;20180;-83
2023/06/24 06:55:58;;;;;;;6.30;5.70;;;20.20;1.00;;;;;;5032940;28;20201;-83
2023/06/24 06:58:24;;;;;;;4.18;3.78;;;20.40;99.90;;;;;;5034605;28;20518;-83
2023/06/24 07:00:50;;;;;;;5.68;5.07;;;20.50;1.00;;;;;;5033057;28;20198;-83
2023/06/24 07:03:15;;;;;;;4.60;4.10;;;20.40;1.00;;;;;;5032985;28;20170;-83
2023/06/24 07:05:41;;;;;;;6.90;4.60;;;20.30;99.90;;;;;;5032878;28;20264;-83
2023/06/24 07:08:07;;;;;;;5.40;4.90;;;20.20;1.00;;;;;;5034315;28;20211;-83
2023/06/24 07:10:33;;;;;;;7.10;5.45;;;20.10;1.00;;;;;;5034149;28;20185;-83
2023/06/24 07:12:58;;;;;;;6.80;5.13;;;20.00;1.00;;;;;;5032747;28;20554;-83
2023/06/24 07:15:25;;;;;;;5.88;4.72;;;20.00;1.00;;;;;;5033855;28;20205;-83
2023/06/24 07:17:51;;;;;;;8.32;5.05;;;20.10;1.00;;;;;;5033837;28;20186;-83
2023/06/24 07:20:16;;;;;;;5.72;4.93;;;20.30;1.00;;;;;;5032562;28;20178;-81
2023/06/24 07:22:42;;;;;;;6.65;5.20;;;20.20;51.10;;;;;;5041363;28;20552;-83
2023/06/24 07:25:07;;;;;;;5.53;4.57;;;20.20;1.00;;;;;;5048743;28;20304;-83
2023/06/24 07:27:33;;;;;;;8.20;5.70;;;20.20;1.00;;;;;;5052750;28;20165;-83
2023/06/24 07:29:58;;;;;;;6.20;4.32;;;20.10;1.00;;;;;;5039279;28;20277;-83
2023/06/24 07:32:24;;;;;;;7.50;4.85;;;20.20;25.10;;;;;;5032415;28;20265;-83
2023/06/24 07:34:50;;;;;;;4.50;4.00;;;20.40;1.00;;;;;;5032504;28;20198;-83
2023/06/24 07:37:15;;;;;;;7.72;5.75;;;20.40;1.00;;;;;;5034756;28;20186;-83
2023/06/24 07:39:41;;;;;;;6.15;4.72;;;20.60;99.90;;;;;;5047856;28;20178;-83
2023/06/24 07:42:07;;;;;;;5.93;4.78;;;20.70;24.30;;;;;;5032220;28;20208;-83
2023/06/24 07:44:33;;;;;;;5.43;4.93;;;20.60;99.90;;;;;;5027492;28;20226;-83
2023/06/24 07:46:58;;;;;;;6.22;5.63;;;20.60;1.00;;;;;;5013738;28;20198;-83
2023/06/24 07:49:24;;;;;;;6.32;5.75;;;20.60;1.00;;;;;;5013734;28;20181;-85
2023/06/24 07:51:49;;;;;;;7.25;5.53;;;20.60;28.40;;;;;;5013719;28;20186;-84
2023/06/24 07:54:15;;;;;;;5.72;5.22;;;20.60;1.00;;;;;;5011926;28;20240;-85
2023/06/24 07:56:42;;;;;;;6.43;5.20;;;20.50;1.00;;;;;;5011710;28;20179;-85
2023/06/24 07:59:07;;;;;;;8.50;5.72;;;20.70;1.00;;;;;;5012083;28;20179;-86
2023/06/24 08:01:33;;;;;;;5.95;5.43;;;20.90;99.90;;;;;;5011450;28;20205;-86
2023/06/24 08:03:58;;;;;;;6.22;5.63;;;20.90;99.90;;;;;;5022697;28;20178;-84
2023/06/24 08:06:24;;;;;;;4.90;4.35;;;21.00;1.00;;;;;;5031593;28;20206;-84
2023/06/24 08:08:50;;;;;;;4.95;4.50;;;21.00;1.00;;;;;;5032989;28;20175;-87
2023/06/24 08:11:16;;;;;;;5.72;4.65;;;21.00;1.00;;;;;;5042798;28;20174;-86
2023/06/24 08:13:41;;;;;;;7.18;5.60;;;21.20;99.90;;;;;;5031424;28;20174;-86
2023/06/24 08:16:07;;;;;;;6.97;5.10;;;21.20;7.50;;;;;;5032761;28;20189;-87
2023/06/24 08:18:33;;;;;;;4.75;3.80;;;21.30;50.60;;;;;;5044029;28;20178;-85
2023/06/24 08:20:59;;;;;;;4.70;4.15;;;21.50;99.90;;;;;;5052952;28;20185;-85
2023/06/24 08:23:24;;;;;;;6.50;4.22;;;21.50;1.00;;;;;;5052982;28;20248;-85
2023/06/24 08:25:50;;;;;;;4.85;4.40;;;21.60;1.00;;;;;;5041195;28;20260;-83
2023/06/24 08:28:15;;;;;;;5.15;4.10;;;21.70;1.00;;;;;;5030992;28;20201;-86
2023/06/24 08:30:41;;;;;;;5.40;4.90;;;21.80;99.90;;;;;;5032506;28;20228;-85
2023/06/24 08:33:06;;;;;;;5.55;4.28;;;22.00;99.90;;;;;;5031430;28;20174;-85
2023/06/24 08:35:32;;;;;;;6.13;4.45;;;22.00;99.90;;;;;;5032063;28;20198;-85
2023/06/24 08:37:58;;;;;;;6.55;4.60;;;21.90;99.90;;;;;;5032606;28;20186;-86
2023/06/24 08:40:23;;;;;;;5.03;4.38;;;22.20;1.00;;;;;;5032141;28;20174;-84
2023/06/24 08:42:49;;;;;;;5.50;5.00;;;22.40;1.00;;;;;;5032012;28;20236;-84
2023/06/24 08:45:14;;;;;;;5.90;5.28;;;22.50;99.90;;;;;;5032905;28;20195;-84
2023/06/24 08:47:41;;;;;;;7.60;4.90;;;22.60;99.90;;;;;;5031634;28;20197;-84
2023/06/24 08:50:13;;;;;;;5.57;4.97;;;22.80;1.00;;;;;;5030930;28;20171;-84
2023/06/24 08:52:43;;;;;;;5.07;4.60;;;22.90;28.00;;;;;;5031182;28;20174;-85
2023/06/24 08:55:13;;;;;;;6.40;4.80;;;23.10;99.90;;;;;;5032838;28;20277;-82
2023/06/24 08:57:39;;;;;;;5.03;4.50;;;23.00;1.00;;;;;;5027292;28;20211;-82
2023/06/24 09:00:09;;;;;;;5.28;4.50;;;23.20;1.00;;;;;;5029424;28;20198;-83
2023/06/24 09:02:37;;;;;;;5.47;4.65;;;23.30;1.00;;;;;;4996478;28;20562;-82
2023/06/24 09:05:07;;;;;;;5.35;4.60;;;23.40;1.00;;;;;;5013554;28;20289;-82
2023/06/24 09:07:33;;;;;;;6.32;5.30;;;23.50;99.90;;;;;;5017767;28;20167;-83
2023/06/24 09:10:00;;;;;;;5.82;4.63;;;23.60;99.90;;;;;;5017308;28;20178;-83
2023/06/24 09:12:26;;;;;;;6.10;5.10;;;23.40;99.90;;;;;;5019300;28;20174;-82
2023/06/24 09:14:52;;;;;;;6.13;4.85;;;23.50;99.90;;;;;;5022228;28;20209;-83
2023/06/24 09:17:21;;;;;;;5.22;4.47;;;23.60;99.90;;;;;;5024387;28;20234;-82
2023/06/24 09:19:48;;;;;;;5.70;4.50;;;23.60;99.90;;;;;;5017443;28;20209;-83
2023/06/24 09:22:17;;;;;;;4.90;4.47;;;23.70;99.90;;;;;;5016532;28;20199;-83
2023/06/24 09:24:47;;;;;;;5.00;4.50;;;24.00;99.90;;;;;;5016191;28;20217;-83
2023/06/24 09:27:19;;;;;;;5.05;4.32;;;24.10;69.90;;;;;;5016500;28;20179;-83
2023/06/24 09:29:47;;;;;;;6.53;4.20;;;24.20;26.00;;;;;;5016229;28;20167;-83
2023/06/24 09:32:12;;;;;;;4.50;4.10;;;24.30;67.60;;;;;;5017270;28;20206;-84
2023/06/24 09:34:38;;;;;;;5.32;4.20;;;24.40;1.00;;;;;;5015675;28;20238;-83
2023/06/24 09:37:05;;;;;;;5.55;4.88;;;24.50;1.00;;;;;;5017558;28;20187;-84
2023/06/24 09:39:36;;;;;;;4.45;4.05;;;24.50;1.00;;;;;;5016712;28;20174;-83
2023/06/24 09:42:03;;;;;;;4.50;3.90;;;24.60;1.00;;;;;;5017081;28;20211;-83
2023/06/24 09:44:29;;;;;;;4.57;3.97;;;24.90;1.00;;;;;;5015428;28;20195;-84
2023/06/24 09:46:56;;;;;;;5.80;4.13;;;25.10;99.90;;;;;;5016649;28;20171;-83
2023/06/24 09:49:22;;;;;;;5.05;4.05;;;25.20;99.90;;;;;;5015172;28;20669;-84
2023/06/24 09:51:54;;;;;;;5.55;4.00;;;25.20;99.90;;;;;;5015441;28;20202;-83
2023/06/24 09:54:21;;;;;;;3.88;3.42;;;25.30;99.90;;;;;;5016641;28;20195;-84
2023/06/24 09:56:49;;;;;;;4.78;4.28;;;25.30;99.90;;;;;;5015222;28;20179;-83
2023/06/24 09:59:17;;;;;;;4.55;4.10;;;25.50;93.00;;;;;;5015302;28;20171;-83
2023/06/24 10:01:44;;;;;;;4.28;3.88;;;25.70;99.90;;;;;;5014871;28;20270;-83
2023/06/24 10:04:21;;;;;;;4.07;3.60;;;25.50;1.00;;;;;;5015045;28;20198;-83
2023/06/24 10:06:48;;;;;;;3.92;3.50;;;25.60;1.00;;;;;;5016580;28;20246;-84
2023/06/24 10:09:16;;;;;;;4.00;3.60;;;25.90;1.00;;;;;;5016451;28;20175;-83
2023/06/24 10:11:43;;;;;;;3.97;3.55;;;26.10;1.00;;;;;;5015014;28;20175;-83
2023/06/24 10:14:08;;;;;;;4.05;3.65;;;25.90;1.00;;;;;;5014649;28;20321;-83
2023/06/24 10:16:34;;;;;;;4.22;3.72;;;25.50;1.00;;;;;;5016306;28;20641;-83
2023/06/24 10:19:04;;;;;;;4.20;3.53;;;25.00;1.00;;;;;;5015123;28;20171;-83
2023/06/24 10:21:51;;;;;;;4.38;3.60;;;25.00;99.90;;;;;;5014975;28;20203;-83
2023/06/24 10:24:46;;;;;;;3.97;3.58;;;25.50;1.00;;;;;;5014682;28;20186;-83
2023/06/24 10:27:24;;;;;;;4.60;4.00;;;25.60;1.00;;;;;;5014612;28;20194;-83
2023/06/24 10:29:52;;;;;;;3.55;3.10;;;25.80;1.00;;;;;;5015627;28;20143;-83
2023/06/24 10:32:19;;;;;;;4.28;3.20;;;26.00;1.00;;;;;;5014744;28;20251;-84
2023/06/24 10:34:46;;;;;;;3.53;3.22;;;26.30;1.00;;;;;;5015770;28;20283;-83
2023/06/24 10:37:19;;;;;;;3.97;3.55;;;26.60;1.00;;;;;;5015509;28;20198;-83
2023/06/24 10:39:54;;;;;;;6.18;3.28;;;27.00;1.00;;;;;;5015495;28;20552;-84
2023/06/24 10:42:42;;;;;;;4.55;3.05;;;27.40;1.00;;;;;;5014307;28;20202;-83
2023/06/24 10:45:13;;;;;;;4.47;3.20;;;27.60;99.90;;;;;;5015465;28;20183;-84
2023/06/24 10:47:46;;;;;;;2.90;2.45;;;27.60;99.90;;;;;;5016168;28;20175;-84
2023/06/24 10:50:13;;;;;;;3.88;2.70;;;27.70;99.90;;;;;;5013547;28;20178;-84
2023/06/24 10:52:44;;;;;;;3.15;2.95;;;27.90;99.90;;;;;;5014076;28;20210;-84
2023/06/24 10:55:10;;;;;;;3.17;2.88;;;28.20;99.90;;;;;;5015633;28;20203;-84
2023/06/24 10:57:36;;;;;;;3.75;3.03;;;28.40;99.90;;;;;;5014290;28;20175;-84
2023/06/24 11:00:03;;;;;;;3.33;3.03;;;28.50;99.90;;;;;;5013509;28;20178;-83
2023/06/24 11:02:28;;;;;;;3.28;2.95;;;28.10;99.90;;;;;;5015114;28;20708;-84
2023/06/24 11:04:54;;;;;;;3.60;3.20;;;28.30;99.90;;;;;;5013662;28;20210;-84
2023/06/24 11:07:25;;;;;;;3.90;3.33;;;27.90;99.90;;;;;;5014819;28;20183;-83
2023/06/24 11:10:00;;;;;;;3.70;3.25;;;27.30;1.00;;;;;;5015019;28;20267;-84
2023/06/24 11:12:28;;;;;;;3.28;2.97;;;27.00;99.90;;;;;;5013983;28;20214;-84
2023/06/24 11:15:04;;;;;;;3.47;2.90;;;26.50;1.00;;;;;;5015116;28;20237;-84
2023/06/24 11:17:30;;;;;;;3.55;2.88;;;26.40;1.00;;;;;;5014980;28;20166;-84
2023/06/24 11:19:57;;;;;;;3.28;2.92;;;26.90;1.00;;;;;;5013733;28;20225;-84
2023/06/24 11:22:23;;;;;;;3.67;3.20;;;27.50;99.90;;;;;;5013484;28;20230;-83
2023/06/24 11:24:49;;;;;;;3.22;2.92;;;27.70;99.90;;;;;;5014876;28;20533;-84
2023/06/24 11:27:15;;;;;;;3.50;3.20;;;28.20;99.90;;;;;;5013676;28;20258;-83
2023/06/24 11:29:40;;;;;;;3.28;3.05;;;28.30;99.90;;;;;;5012895;28;20198;-84
2023/06/24 11:32:09;;;;;;;3.50;3.20;;;28.00;99.90;;;;;;5013026;28;20181;-84
2023/06/24 11:34:38;;;;;;;3.63;3.33;;;27.60;99.90;;;;;;5013352;28;20195;-83
2023/06/24 11:37:11;;;;;;;3.72;3.35;;;27.80;99.90;;;;;;5014634;28;20196;-84
2023/06/24 11:39:36;;;;;;;3.20;3.00;;;28.40;99.90;;;;;;5012852;28;20201;-81
2023/06/24 11:42:02;;;;;;;4.05;3.10;;;28.50;99.90;;;;;;5012917;28;20679;-83
2023/06/24 11:44:30;;;;;;;4.13;3.20;;;28.70;99.90;;;;;;5013014;28;20201;-83
2023/06/24 11:47:06;;;;;;;3.20;2.90;;;28.80;99.90;;;;;;5014671;28;20175;-83
2023/06/24 11:49:32;;;;;;;3.78;3.47;;;28.90;99.90;;;;;;5014147;28;20175;-84
2023/06/24 11:51:57;;;;;;;4.82;3.20;;;28.70;99.90;;;;;;5013135;28;20289;-83
2023/06/24 11:54:24;;;;;;;6.05;3.40;;;29.10;99.90;;;;;;5014429;28;20245;-84
2023/06/24 11:56:52;;;;;;;3.55;3.17;;;29.30;99.90;;;;;;5014120;28;20175;-84
2023/06/24 11:59:19;;;;;;;3.90;3.10;;;29.40;99.90;;;;;;5015286;28;20310;-84
2023/06/24 12:01:52;;;;;;;3.53;3.22;;;29.80;99.90;;;;;;5033679;28;20194;-84
2023/06/24 12:04:17;;;;;;;3.40;3.10;;;30.00;99.90;;;;;;5033836;28;20687;-83
2023/06/24 12:06:43;;;;;;;3.33;3.00;;;30.40;99.90;;;;;;5032620;28;20166;-84
2023/06/24 12:09:10;;;;;;;3.97;3.17;;;30.70;99.90;;;;;;5048694;28;20220;-84
2023/06/24 12:11:36;;;;;;;3.38;3.08;;;30.40;99.90;;;;;;5032223;28;20269;-84
2023/06/24 12:14:02;;;;;;;3.83;3.53;;;29.90;99.90;;;;;;5032649;28;20185;-84
2023/06/24 12:16:27;;;;;;;3.88;3.08;;;29.30;99.90;;;;;;5033594;28;20174;-83
2023/06/24 12:18:53;;;;;;;3.38;3.08;;;28.50;99.90;;;;;;5032078;28;20178;-84
2023/06/24 12:21:19;;;;;;;3.88;3.30;;;27.90;99.90;;;;;;5032000;28;20229;-83
2023/06/24 12:23:45;;;;;;;3.50;3.20;;;27.40;99.90;;;;;;5033307;28;20167;-83
2023/06/24 12:26:11;;;;;;;3.75;3.42;;;27.50;99.90;;;;;;5032135;28;20277;-84
2023/06/24 12:28:36;;;;;;;3.30;3.00;;;27.80;99.90;;;;;;5031894;28;20662;-84
2023/06/24 12:31:02;;;;;;;3.63;3.33;;;28.30;99.90;;;;;;5031935;28;20234;-84
2023/06/24 12:33:28;;;;;;;3.58;3.00;;;28.60;99.90;;;;;;5032061;28;20182;-84
2023/06/24 12:35:54;;;;;;;3.33;2.90;;;29.00;99.90;;;;;;5033599;28;20255;-83
2023/06/24 12:38:19;;;;;;;3.30;2.97;;;29.60;99.90;;;;;;5033628;28;20174;-84
2023/06/24 12:40:45;;;;;;;3.63;2.95;;;29.60;99.90;;;;;;5031522;28;20252;-84
2023/06/24 12:43:11;;;;;;;3.28;2.90;;;29.70;99.90;;;;;;5031695;28;20546;-84
2023/06/24 12:45:43;;;;;;;3.72;2.85;;;29.80;99.90;;;;;;5032039;28;20695;-84
2023/06/24 12:48:09;;;;;;;3.58;2.67;;;29.90;99.90;;;;;;5032222;28;20171;-84
2023/06/24 12:50:35;;;;;;;2.90;2.70;;;30.00;99.90;;;;;;5032721;28;20535;-83